Página principal
METAR-TAF:

METAR-TAF

Aeroportos :

Dakar, Senegal

Aeroporto Internacional Yoff-Léopold Sédar Senghor

latitude: 14-44N, longitude: 017-30W, altura: 27 m

Observação actual do tempo

O boletim foi feito há 1 hora e 10 minutos, às 14:00 UTC
Vento 16 kt de nor-nordeste
Temperatura 22°C
Humidade 57%
Pressão 1015 hPa
Visibilidade: 9000 m

METAR: GOOY 161400Z 02016KT 9000 NSC 22/13 Q1015

Hora: 15:10 (15:10 UTC)

Previsão

O boletim foi feito há 3 horas e 40 minutos, às 11:30 UTC
Previsão válida de 16 às 12 UTC a 17 às 18 UTC
Vento 15 kt de nor-nordeste
Visibilidade: 8000 m

TAF: GOOY 161130Z 1612/1718 03015KT 8000 NSC

Observações e previsões do tempo de mais de 4000 aeroportos (mensagens METAR e TAF).

As estações disponíveis são os pontos amarelos e vermelhos sobre o mapa.

Mova o rato sobre o mapa para ver o nome da estação.

Depois clique no ponto para visualizar as observações e previsões meteorológicas.

Para alterar o mapa : clique nos botões verdes com uma cruz preta para aumentar o zoom; no botão verde com uma pitada de zoom; ou nas setas verdes para mapas adjacentes.


METAR-TAF: